Time;durP1;ratioP1;P1;durP2;ratioP2;P2;SDS_P1;SDS_P2;PMS_P1;PMS_P2;Temp;Humidity;BMP_temperature;BMP_pressure;BME280_temperature;BME280_humidity;BME280_pressure;Samples;Min_cycle;Max_cycle;Signal;HPM_P1;HPM_P2
2022/06/28 00:02:04;;;;;;;1.60;1.60;;;25.70;50.40;;;;;;5053994;28;20425;-80
2022/06/28 00:04:32;;;;;;;1.70;1.60;;;25.70;50.40;;;;;;5060588;28;20438;-81
2022/06/28 00:07:01;;;;;;;1.80;1.53;;;25.70;50.50;;;;;;5051533;28;20418;-79
2022/06/28 00:09:29;;;;;;;1.60;1.50;;;25.70;50.30;;;;;;5038196;28;20443;-80
2022/06/28 00:11:57;;;;;;;1.70;1.60;;;25.60;50.40;;;;;;5040372;28;20541;-80
2022/06/28 00:17:10;;;;;;;1.93;1.50;;;25.70;50.40;;;;;;5038632;28;20445;-79
2022/06/28 00:19:38;;;;;;;1.90;1.80;;;25.60;50.40;;;;;;5038744;28;20422;-79
2022/06/28 00:22:07;;;;;;;2.07;1.67;;;25.60;50.50;;;;;;5053139;28;20520;-79
2022/06/28 00:24:35;;;;;;;1.70;1.57;;;25.60;50.30;;;;;;5058494;28;20428;-80
2022/06/28 00:27:04;;;;;;;1.87;1.77;;;25.60;50.30;;;;;;5058334;28;20421;-79
2022/06/28 00:29:31;;;;;;;2.13;1.90;;;25.50;50.20;;;;;;5046754;28;20454;-80
2022/06/28 00:31:59;;;;;;;2.10;2.00;;;25.50;50.40;;;;;;5054924;28;20499;-81
2022/06/28 00:34:27;;;;;;;1.90;1.80;;;25.50;50.50;;;;;;5057804;28;20911;-82
2022/06/28 00:36:55;;;;;;;1.70;1.63;;;25.60;50.30;;;;;;5059158;28;20508;-82
2022/06/28 00:39:24;;;;;;;1.60;1.50;;;25.60;50.30;;;;;;5059316;28;20442;-82
2022/06/28 00:41:52;;;;;;;1.60;1.50;;;25.50;50.30;;;;;;5060147;28;20448;-82
2022/06/28 00:44:20;;;;;;;2.10;2.00;;;25.50;50.20;;;;;;5055057;28;20484;-81
2022/06/28 00:46:48;;;;;;;1.93;1.73;;;25.50;50.20;;;;;;5063529;28;20921;-83
2022/06/28 00:49:17;;;;;;;1.67;1.57;;;25.50;50.20;;;;;;5070337;28;20428;-79
2022/06/28 00:51:44;;;;;;;1.83;1.73;;;25.50;50.00;;;;;;5076859;28;20541;-80
2022/06/28 00:54:13;;;;;;;1.80;1.70;;;25.40;50.10;;;;;;5078028;28;20416;-80
2022/06/28 00:56:42;;;;;;;1.70;1.70;;;25.40;50.20;;;;;;5078579;28;20448;-80
2022/06/28 00:59:10;;;;;;;2.00;1.90;;;25.40;50.20;;;;;;5077933;28;20412;-80
2022/06/28 01:01:38;;;;;;;2.10;1.60;;;25.40;50.30;;;;;;5068422;28;20432;-80
2022/06/28 01:04:06;;;;;;;1.87;1.77;;;25.40;50.30;;;;;;5048751;28;20421;-80
2022/06/28 01:06:34;;;;;;;1.77;1.60;;;25.40;50.60;;;;;;5052648;28;20528;-81
2022/06/28 01:09:02;;;;;;;2.00;1.83;;;25.40;50.30;;;;;;5057588;28;20554;-80
2022/06/28 01:11:29;;;;;;;2.07;1.60;;;25.30;50.30;;;;;;5057522;28;20428;-81
2022/06/28 01:14:00;;;;;;;2.00;1.90;;;25.30;50.20;;;;;;5056933;28;20931;-82
2022/06/28 01:16:28;;;;;;;1.93;1.83;;;25.20;50.30;;;;;;5056302;28;20458;-80
2022/06/28 01:18:56;;;;;;;1.83;1.70;;;25.20;50.20;;;;;;5056004;28;20486;-80
2022/06/28 01:21:26;;;;;;;1.47;1.47;;;25.20;50.30;;;;;;5048818;28;20416;-82
2022/06/28 01:23:55;;;;;;;1.90;1.80;;;25.20;50.40;;;;;;5055535;28;20440;-80
2022/06/28 01:26:23;;;;;;;1.90;1.80;;;25.20;50.40;;;;;;5056571;28;20421;-80
2022/06/28 01:28:52;;;;;;;2.10;1.93;;;25.10;50.20;;;;;;5056731;28;20456;-80
2022/06/28 01:31:21;;;;;;;1.80;1.70;;;25.10;50.40;;;;;;5057435;28;20463;-80
2022/06/28 01:33:49;;;;;;;1.73;1.63;;;25.10;50.50;;;;;;5056492;28;20441;-80
2022/06/28 01:36:16;;;;;;;1.70;1.60;;;25.10;50.40;;;;;;5055121;28;20522;-80
2022/06/28 01:38:44;;;;;;;1.97;1.87;;;25.10;50.50;;;;;;5048042;28;20443;-80
2022/06/28 01:41:32;;;;;;;1.60;1.50;;;25.00;50.40;;;;;;5055782;28;20535;-80
2022/06/28 01:44:01;;;;;;;1.60;1.50;;;25.10;50.40;;;;;;5056496;28;20446;-80
2022/06/28 01:46:29;;;;;;;1.70;1.60;;;25.00;50.50;;;;;;5056224;28;20442;-81
2022/06/28 01:48:57;;;;;;;1.90;1.80;;;25.00;50.40;;;;;;5056423;28;20425;-80
2022/06/28 01:51:25;;;;;;;1.87;1.77;;;25.00;50.30;;;;;;5054931;28;20469;-80
2022/06/28 01:53:53;;;;;;;1.60;1.50;;;24.90;50.40;;;;;;5047645;28;20421;-80
2022/06/28 01:56:22;;;;;;;2.17;1.80;;;24.90;50.40;;;;;;5055578;28;20509;-81
2022/06/28 01:58:50;;;;;;;5.27;1.73;;;24.90;50.40;;;;;;5055293;28;20417;-80
2022/06/28 02:01:18;;;;;;;1.70;1.60;;;24.90;50.50;;;;;;5055934;28;20423;-80
2022/06/28 02:03:46;;;;;;;1.90;1.80;;;24.80;50.40;;;;;;5055709;28;20535;-79
2022/06/28 02:06:14;;;;;;;1.93;1.83;;;24.80;50.30;;;;;;5055409;28;20417;-80
2022/06/28 02:08:42;;;;;;;1.80;1.70;;;24.80;50.40;;;;;;5055581;28;20477;-81
2022/06/28 02:11:10;;;;;;;2.10;1.67;;;24.80;50.50;;;;;;5049714;28;20527;-81
2022/06/28 02:13:39;;;;;;;1.70;1.60;;;24.70;50.40;;;;;;5052910;28;20444;-81
2022/06/28 02:16:07;;;;;;;2.10;1.90;;;24.70;50.50;;;;;;5055779;28;20431;-80
2022/06/28 02:18:35;;;;;;;1.77;1.67;;;24.70;50.60;;;;;;5055782;28;20421;-80
2022/06/28 02:21:03;;;;;;;1.90;1.80;;;24.70;51.00;;;;;;5055376;28;20452;-80
2022/06/28 02:23:31;;;;;;;1.40;1.40;;;24.70;50.50;;;;;;5056143;28;20445;-81
2022/06/28 02:25:59;;;;;;;1.73;1.63;;;24.70;50.50;;;;;;5054985;28;20461;-82
2022/06/28 02:28:26;;;;;;;1.80;1.70;;;24.70;50.30;;;;;;5047585;28;20409;-80
2022/06/28 02:30:55;;;;;;;4.00;2.10;;;24.60;50.40;;;;;;5055427;28;20517;-80
2022/06/28 02:33:23;;;;;;;2.20;2.10;;;24.60;50.40;;;;;;5050621;28;20516;-81
2022/06/28 02:41:22;;;;;;;2.07;1.90;;;24.50;50.30;;;;;;5055329;28;20429;-81
2022/06/28 02:43:50;;;;;;;2.60;2.33;;;24.50;50.50;;;;;;5047139;28;20442;-82
2022/06/28 02:46:19;;;;;;;2.23;2.13;;;24.50;50.50;;;;;;5056355;28;20508;-81
2022/06/28 02:48:47;;;;;;;2.17;1.97;;;24.50;50.40;;;;;;5055014;28;20449;-81
2022/06/28 02:51:15;;;;;;;2.10;2.00;;;24.50;50.50;;;;;;5054933;28;20443;-81
2022/06/28 02:53:43;;;;;;;1.90;1.80;;;24.40;50.40;;;;;;5054773;28;20462;-80
2022/06/28 02:56:11;;;;;;;2.60;2.50;;;24.40;50.50;;;;;;5054600;28;20423;-81
2022/06/28 02:58:39;;;;;;;2.37;2.27;;;24.40;50.50;;;;;;5053952;28;20439;-81
2022/06/28 03:01:07;;;;;;;2.47;2.37;;;24.40;50.40;;;;;;5042223;28;20450;-81
2022/06/28 03:03:37;;;;;;;2.40;2.30;;;24.40;50.50;;;;;;5035471;28;20496;-81
2022/06/28 03:06:05;;;;;;;2.00;1.90;;;24.40;50.50;;;;;;5035136;28;20417;-80
2022/06/28 03:08:32;;;;;;;2.30;2.20;;;24.30;50.40;;;;;;5035816;28;20428;-80
2022/06/28 03:11:00;;;;;;;2.40;2.30;;;24.30;50.50;;;;;;5035602;28;20432;-80
2022/06/28 03:13:28;;;;;;;2.30;2.20;;;24.30;50.30;;;;;;5035244;28;20441;-83
2022/06/28 03:15:56;;;;;;;2.10;2.00;;;24.30;50.40;;;;;;5054837;28;20520;-80
2022/06/28 03:18:24;;;;;;;2.30;2.20;;;24.30;50.30;;;;;;5055109;28;20569;-80
2022/06/28 03:20:54;;;;;;;2.43;2.20;;;24.30;50.60;;;;;;5054982;28;20525;-80
2022/06/28 03:23:22;;;;;;;2.80;2.60;;;24.30;50.60;;;;;;5055204;28;20500;-80
2022/06/28 03:25:49;;;;;;;2.60;2.40;;;24.30;50.40;;;;;;5055432;28;20431;-81
2022/06/28 03:28:17;;;;;;;2.57;2.37;;;24.20;50.50;;;;;;5055401;28;20412;-81
2022/06/28 03:30:52;;;;;;;2.60;2.40;;;24.20;50.40;;;;;;5054604;28;20457;-80
2022/06/28 03:33:19;;;;;;;2.40;2.30;;;24.20;50.30;;;;;;5046593;28;20449;-81
2022/06/28 03:35:47;;;;;;;2.70;2.60;;;24.30;50.50;;;;;;5055241;28;20470;-80
2022/06/28 03:38:16;;;;;;;2.20;1.97;;;24.30;50.30;;;;;;5054682;28;20479;-80
2022/06/28 03:40:44;;;;;;;2.57;2.47;;;24.20;50.30;;;;;;5055201;28;20512;-80
2022/06/28 03:43:12;;;;;;;2.43;2.33;;;24.20;50.30;;;;;;5055198;28;20532;-81
2022/06/28 03:45:40;;;;;;;2.40;2.30;;;24.20;50.20;;;;;;5058863;28;20420;-81
2022/06/28 03:48:09;;;;;;;2.77;2.67;;;24.20;50.30;;;;;;5058955;28;20453;-81
2022/06/28 03:50:37;;;;;;;2.43;2.33;;;24.20;50.20;;;;;;5053203;28;20510;-81
2022/06/28 03:53:05;;;;;;;2.20;2.10;;;24.20;50.20;;;;;;5060112;28;20550;-80
2022/06/28 03:55:34;;;;;;;2.40;2.20;;;24.20;50.20;;;;;;5058900;28;20453;-80
2022/06/28 03:58:02;;;;;;;3.10;2.70;;;24.20;50.10;;;;;;5059126;28;20470;-80
2022/06/28 04:00:30;;;;;;;2.40;2.30;;;24.20;50.10;;;;;;5058883;28;20512;-81
2022/06/28 04:02:59;;;;;;;2.80;2.60;;;24.20;50.40;;;;;;5058262;28;20480;-81
2022/06/28 04:05:27;;;;;;;2.77;2.57;;;24.20;50.10;;;;;;5056985;28;20520;-81
2022/06/28 04:07:55;;;;;;;2.70;2.60;;;24.20;50.30;;;;;;5048995;28;20530;-80
2022/06/28 04:10:23;;;;;;;2.17;2.07;;;24.20;50.20;;;;;;5058151;28;20516;-81
2022/06/28 04:12:52;;;;;;;2.63;2.53;;;24.20;50.20;;;;;;5059109;28;20464;-80
2022/06/28 04:15:20;;;;;;;2.50;2.37;;;24.20;50.30;;;;;;5059952;28;20481;-81
2022/06/28 04:17:48;;;;;;;2.07;1.97;;;24.20;50.20;;;;;;5059068;28;20547;-81
2022/06/28 04:20:16;;;;;;;2.47;2.30;;;24.20;50.20;;;;;;5058830;28;20514;-82
2022/06/28 04:22:44;;;;;;;2.53;2.33;;;24.20;50.20;;;;;;5055769;28;20546;-81
2022/06/28 04:25:12;;;;;;;2.93;2.60;;;24.20;50.10;;;;;;5052539;28;20452;-81
2022/06/28 04:27:40;;;;;;;2.57;2.47;;;24.20;50.20;;;;;;5059201;28;20477;-81
2022/06/28 04:30:11;;;;;;;2.50;2.40;;;24.20;50.00;;;;;;5058209;28;20508;-81
2022/06/28 04:32:39;;;;;;;4.37;2.97;;;24.20;50.20;;;;;;5058375;28;20528;-81
2022/06/28 04:35:07;;;;;;;2.77;2.60;;;24.20;50.00;;;;;;5058791;28;20435;-81
2022/06/28 04:37:35;;;;;;;2.73;2.43;;;24.20;50.10;;;;;;5056403;28;20500;-81
2022/06/28 04:40:03;;;;;;;2.50;2.40;;;24.20;50.10;;;;;;5051693;28;20508;-81
2022/06/28 04:42:31;;;;;;;2.43;2.33;;;24.20;50.00;;;;;;5058292;28;20471;-80
2022/06/28 04:44:59;;;;;;;2.47;2.37;;;24.20;50.10;;;;;;5058385;28;20453;-81
2022/06/28 04:47:28;;;;;;;2.00;1.90;;;24.20;50.00;;;;;;5057522;28;20437;-81
2022/06/28 04:49:56;;;;;;;2.53;2.43;;;24.20;49.90;;;;;;5058468;28;20504;-81
2022/06/28 04:52:24;;;;;;;2.60;2.50;;;24.20;50.10;;;;;;5058101;28;20469;-81
2022/06/28 04:54:52;;;;;;;3.13;2.83;;;24.20;50.20;;;;;;5056801;28;20433;-81
2022/06/28 04:57:20;;;;;;;3.00;2.43;;;24.20;50.00;;;;;;5050518;28;20527;-82
2022/06/28 04:59:48;;;;;;;2.27;2.17;;;24.10;49.90;;;;;;5057454;28;20431;-81
2022/06/28 05:02:15;;;;;;;2.80;2.60;;;24.20;50.20;;;;;;5057666;28;20534;-81
2022/06/28 05:04:46;;;;;;;2.20;2.10;;;24.10;50.00;;;;;;5058919;28;20428;-81
2022/06/28 05:07:14;;;;;;;2.40;2.30;;;24.10;49.90;;;;;;5058185;28;20512;-81
2022/06/28 05:09:42;;;;;;;2.73;2.63;;;24.10;50.00;;;;;;5058570;28;20457;-81
2022/06/28 05:12:10;;;;;;;2.40;2.20;;;24.20;49.90;;;;;;5053657;28;20477;-81
2022/06/28 05:14:38;;;;;;;2.40;2.30;;;24.20;49.80;;;;;;5055217;28;20413;-81
2022/06/28 05:17:06;;;;;;;2.13;2.03;;;24.20;50.00;;;;;;5057978;28;20451;-81
2022/06/28 05:19:35;;;;;;;2.50;2.30;;;24.20;49.90;;;;;;5057800;28;20480;-82
2022/06/28 05:22:08;;;;;;;2.63;2.50;;;24.20;49.90;;;;;;5058080;28;20489;-81
2022/06/28 05:24:36;;;;;;;2.40;2.30;;;24.20;49.80;;;;;;5057702;28;20424;-82
2022/06/28 05:27:04;;;;;;;2.07;1.97;;;24.20;49.80;;;;;;5052594;28;20774;-81
2022/06/28 05:29:32;;;;;;;1.90;1.80;;;24.20;49.80;;;;;;5055054;28;20496;-82
2022/06/28 05:32:00;;;;;;;1.97;1.87;;;24.20;49.80;;;;;;5057135;28;20433;-82
2022/06/28 05:34:29;;;;;;;2.43;2.33;;;24.20;49.80;;;;;;5057551;28;20502;-81
2022/06/28 05:36:57;;;;;;;2.40;2.30;;;24.20;49.90;;;;;;5058478;28;20429;-82
2022/06/28 05:39:26;;;;;;;2.40;2.30;;;24.20;49.70;;;;;;5057382;28;20478;-82
2022/06/28 05:41:54;;;;;;;4.10;2.43;;;24.20;49.80;;;;;;5057607;28;20461;-81
2022/06/28 05:44:21;;;;;;;2.40;2.30;;;24.20;49.60;;;;;;5046585;28;20489;-81
2022/06/28 05:46:50;;;;;;;2.70;2.60;;;24.20;49.80;;;;;;5056320;28;20455;-82
2022/06/28 05:49:18;;;;;;;2.33;2.17;;;24.30;49.90;;;;;;5057710;28;20397;-81
2022/06/28 05:51:46;;;;;;;2.30;2.10;;;24.30;49.80;;;;;;5057660;28;20419;-81
2022/06/28 05:54:14;;;;;;;3.10;2.90;;;24.30;49.70;;;;;;5057409;28;20453;-81
2022/06/28 05:56:43;;;;;;;2.57;2.47;;;24.30;49.60;;;;;;5057191;28;20586;-81
2022/06/28 05:59:11;;;;;;;2.83;2.60;;;24.30;49.60;;;;;;5055726;28;20532;-82
2022/06/28 06:01:39;;;;;;;2.47;2.37;;;24.30;49.60;;;;;;5048365;28;20424;-81
2022/06/28 06:04:07;;;;;;;2.67;2.57;;;24.30;49.70;;;;;;5057140;28;20485;-82
2022/06/28 06:06:35;;;;;;;2.47;2.33;;;24.30;49.70;;;;;;5057668;28;20470;-82
2022/06/28 06:09:03;;;;;;;2.70;2.50;;;24.40;49.60;;;;;;5057014;28;20461;-81
2022/06/28 06:11:31;;;;;;;2.30;2.10;;;24.40;49.80;;;;;;5057018;28;20446;-81
2022/06/28 06:14:00;;;;;;;2.90;2.70;;;24.40;49.70;;;;;;5057345;28;20545;-81
2022/06/28 06:16:28;;;;;;;2.27;2.17;;;24.40;49.50;;;;;;5056103;28;20425;-82
2022/06/28 06:18:56;;;;;;;2.77;2.57;;;24.50;49.80;;;;;;5048212;28;20845;-82
2022/06/28 06:21:24;;;;;;;2.27;2.17;;;24.40;49.60;;;;;;5057184;28;20428;-82
2022/06/28 06:23:52;;;;;;;2.43;2.33;;;24.50;49.70;;;;;;5057058;28;20512;-81
2022/06/28 06:26:19;;;;;;;2.20;2.10;;;24.50;49.50;;;;;;5056883;28;20427;-81
2022/06/28 06:28:47;;;;;;;2.73;2.53;;;24.50;49.40;;;;;;5056683;28;20422;-81
2022/06/28 06:31:17;;;;;;;2.57;2.47;;;24.60;49.50;;;;;;5056891;28;20415;-81
2022/06/28 06:33:44;;;;;;;2.40;2.20;;;24.60;49.60;;;;;;5054238;28;20452;-81
2022/06/28 06:36:12;;;;;;;2.50;2.30;;;24.60;49.50;;;;;;5050213;28;20446;-81
2022/06/28 06:38:40;;;;;;;2.53;2.43;;;24.70;49.40;;;;;;5056375;28;20483;-81
2022/06/28 06:41:08;;;;;;;2.70;2.60;;;24.70;49.30;;;;;;5056468;28;20417;-81
2022/06/28 06:43:36;;;;;;;2.30;2.20;;;24.80;49.40;;;;;;5056444;28;20471;-80
2022/06/28 06:46:04;;;;;;;2.53;2.40;;;24.80;49.50;;;;;;5056227;28;20441;-81
2022/06/28 06:48:33;;;;;;;1.83;1.73;;;24.80;49.20;;;;;;5055358;28;20520;-81
2022/06/28 06:51:02;;;;;;;2.03;1.93;;;24.90;49.30;;;;;;5051820;28;20406;-81
2022/06/28 06:53:30;;;;;;;3.23;2.40;;;24.90;49.10;;;;;;5035719;28;20498;-81
2022/06/28 06:55:57;;;;;;;2.40;2.20;;;25.00;49.20;;;;;;5036457;28;20447;-81
2022/06/28 06:58:25;;;;;;;2.27;2.17;;;25.10;49.20;;;;;;5036172;28;20530;-81
2022/06/28 07:00:53;;;;;;;2.37;2.27;;;25.20;49.00;;;;;;5036164;28;20509;-81
2022/06/28 07:03:21;;;;;;;2.00;1.90;;;25.20;48.80;;;;;;5036094;28;20456;-81
2022/06/28 07:05:51;;;;;;;1.90;1.80;;;25.20;48.70;;;;;;5054136;28;20493;-81
2022/06/28 07:08:19;;;;;;;2.27;2.13;;;25.30;48.70;;;;;;5041289;28;20868;-81
2022/06/28 07:10:46;;;;;;;2.23;2.13;;;25.40;48.60;;;;;;5036662;28;20410;-82
2022/06/28 07:13:14;;;;;;;2.10;2.00;;;25.40;48.50;;;;;;5036291;28;20440;-82
2022/06/28 07:15:42;;;;;;;2.33;2.17;;;25.50;48.60;;;;;;5036271;28;20421;-82
2022/06/28 07:18:10;;;;;;;2.43;1.90;;;25.50;48.50;;;;;;5036428;28;20441;-81
2022/06/28 07:20:37;;;;;;;2.20;2.10;;;25.60;48.50;;;;;;5045084;28;20474;-82
2022/06/28 07:23:07;;;;;;;2.10;2.00;;;25.70;48.20;;;;;;5048189;28;20455;-81
2022/06/28 07:25:34;;;;;;;1.90;1.80;;;25.70;48.40;;;;;;5058689;28;20408;-81
2022/06/28 07:28:02;;;;;;;2.30;1.53;;;25.80;48.50;;;;;;5060308;28;20469;-81
2022/06/28 07:30:30;;;;;;;1.60;1.50;;;25.90;48.60;;;;;;5059914;28;20438;-81
2022/06/28 07:32:58;;;;;;;1.97;1.87;;;25.90;48.60;;;;;;5059684;28;20828;-81
2022/06/28 07:35:26;;;;;;;2.50;1.90;;;26.00;48.70;;;;;;5056564;28;20457;-82
2022/06/28 07:37:54;;;;;;;1.90;1.80;;;26.10;48.70;;;;;;5057202;28;20505;-81
2022/06/28 07:40:24;;;;;;;2.03;1.90;;;26.20;48.70;;;;;;5040209;28;20445;-82
2022/06/28 07:42:52;;;;;;;1.93;1.70;;;26.20;48.60;;;;;;5039950;28;20467;-82
2022/06/28 07:45:19;;;;;;;1.70;1.60;;;26.40;48.80;;;;;;5039771;28;20417;-81
2022/06/28 07:47:48;;;;;;;1.60;1.50;;;26.50;48.40;;;;;;5039075;28;20414;-82
2022/06/28 07:53:02;;;;;;;1.73;1.63;;;26.80;48.50;;;;;;5053296;28;20535;-81
2022/06/28 07:55:31;;;;;;;1.90;1.80;;;26.90;48.40;;;;;;5056121;28;20477;-81
2022/06/28 07:57:59;;;;;;;1.50;1.47;;;27.00;48.20;;;;;;5059523;28;20420;-81
2022/06/28 08:00:27;;;;;;;1.70;1.60;;;27.10;48.20;;;;;;5058883;28;20466;-81
2022/06/28 08:02:55;;;;;;;1.80;1.70;;;27.20;48.20;;;;;;5058868;28;20472;-81
2022/06/28 08:05:22;;;;;;;1.87;1.77;;;27.40;48.30;;;;;;5058992;28;20901;-81
2022/06/28 08:07:50;;;;;;;1.70;1.60;;;27.50;48.20;;;;;;5055771;28;20521;-81
2022/06/28 08:10:18;;;;;;;1.83;1.73;;;27.70;48.00;;;;;;5054383;28;20445;-81
2022/06/28 08:12:47;;;;;;;1.87;1.77;;;27.70;47.60;;;;;;5059067;28;20455;-82
2022/06/28 08:15:15;;;;;;;1.80;1.70;;;27.90;47.90;;;;;;5058852;28;20401;-81
2022/06/28 08:17:43;;;;;;;2.00;1.80;;;28.10;47.60;;;;;;5058696;28;20416;-81
2022/06/28 08:20:11;;;;;;;1.60;1.50;;;28.20;47.40;;;;;;5059221;28;20477;-82
2022/06/28 08:22:39;;;;;;;1.73;1.63;;;28.30;47.20;;;;;;5058657;28;20490;-82
2022/06/28 08:25:08;;;;;;;1.67;1.57;;;28.50;47.40;;;;;;5058376;28;20464;-81
2022/06/28 08:27:36;;;;;;;2.20;2.03;;;28.70;47.20;;;;;;5041178;28;20435;-81
2022/06/28 08:30:07;;;;;;;2.20;2.10;;;28.80;46.90;;;;;;5038718;28;20506;-81
2022/06/28 08:32:34;;;;;;;2.13;2.03;;;28.90;46.90;;;;;;5038784;28;20555;-81
2022/06/28 08:35:02;;;;;;;1.70;1.60;;;29.10;46.80;;;;;;5038967;28;20530;-81
2022/06/28 08:37:30;;;;;;;4.33;1.93;;;29.20;46.70;;;;;;5037536;28;20453;-82
2022/06/28 08:39:58;;;;;;;1.83;1.73;;;29.30;46.70;;;;;;5038690;28;20491;-81
2022/06/28 08:42:27;;;;;;;2.10;1.93;;;29.50;46.60;;;;;;5050219;28;20904;-81
2022/06/28 08:44:55;;;;;;;2.10;1.73;;;29.60;46.50;;;;;;5058181;28;20446;-81
2022/06/28 08:47:25;;;;;;;2.50;1.67;;;29.80;46.40;;;;;;5058276;28;20446;-81
2022/06/28 08:49:55;;;;;;;1.60;1.60;;;29.90;46.10;;;;;;5059600;28;20449;-80
2022/06/28 08:52:25;;;;;;;1.80;1.70;;;30.20;46.00;;;;;;5059222;28;20472;-80
2022/06/28 08:54:53;;;;;;;1.60;1.50;;;30.30;45.90;;;;;;5059321;28;20441;-81
2022/06/28 08:57:21;;;;;;;1.70;1.60;;;30.50;45.80;;;;;;5057657;28;20530;-81
2022/06/28 08:59:49;;;;;;;1.63;1.53;;;30.60;45.60;;;;;;5050036;28;20549;-81
2022/06/28 09:02:17;;;;;;;1.53;1.43;;;30.80;45.50;;;;;;5054820;28;20497;-81
2022/06/28 09:04:50;;;;;;;1.60;1.50;;;31.00;45.40;;;;;;5070173;28;20452;-81
2022/06/28 09:07:18;;;;;;;1.70;1.60;;;31.20;45.20;;;;;;5073129;28;20425;-81
2022/06/28 09:09:46;;;;;;;1.50;1.40;;;31.40;45.10;;;;;;5078703;28;20480;-81
2022/06/28 09:12:14;;;;;;;1.93;1.70;;;31.60;44.80;;;;;;5067487;28;20481;-81
2022/06/28 09:14:42;;;;;;;1.50;1.40;;;31.80;44.60;;;;;;5049106;28;20439;-81
2022/06/28 09:17:21;;;;;;;1.70;1.60;;;31.80;44.10;;;;;;5059284;28;20453;-81
2022/06/28 09:19:53;;;;;;;1.57;1.47;;;31.90;44.20;;;;;;5059138;28;20521;-82
2022/06/28 09:22:29;;;;;;;1.80;1.50;;;32.10;44.20;;;;;;5059408;28;20458;-83
2022/06/28 09:24:57;;;;;;;1.90;1.50;;;32.30;43.90;;;;;;5060048;28;20959;-82
2022/06/28 09:27:28;;;;;;;1.70;1.50;;;32.50;43.70;;;;;;5058076;28;20454;-82
2022/06/28 09:29:56;;;;;;;1.57;1.47;;;32.60;43.40;;;;;;5049567;28;20435;-81
2022/06/28 09:32:28;;;;;;;2.50;1.43;;;32.60;43.00;;;;;;5057932;28;20476;-82
2022/06/28 09:34:58;;;;;;;1.63;1.53;;;32.70;43.00;;;;;;5058257;28;20438;-81
2022/06/28 09:37:34;;;;;;;1.20;1.10;;;32.70;42.80;;;;;;5057819;28;20446;-81
2022/06/28 09:40:20;;;;;;;1.47;1.37;;;32.70;42.60;;;;;;5056630;28;20441;-81
2022/06/28 09:43:05;;;;;;;1.40;1.30;;;32.50;42.60;;;;;;5063060;28;20473;-81
2022/06/28 09:45:33;;;;;;;1.70;1.50;;;32.40;42.70;;;;;;5061959;28;20541;-82
2022/06/28 09:48:01;;;;;;;1.60;1.50;;;32.40;42.90;;;;;;5053200;28;20525;-82
2022/06/28 09:50:34;;;;;;;1.33;1.10;;;32.50;43.00;;;;;;5059614;28;20419;-82
2022/06/28 09:53:02;;;;;;;1.43;1.33;;;32.70;43.00;;;;;;5060339;28;20571;-83
2022/06/28 09:55:36;;;;;;;1.40;1.30;;;32.90;43.00;;;;;;5060416;28;20517;-82
2022/06/28 09:58:04;;;;;;;1.33;1.23;;;33.10;42.60;;;;;;5059258;28;20497;-83
2022/06/28 10:00:34;;;;;;;1.63;1.53;;;33.40;42.40;;;;;;5059797;28;20936;-82
2022/06/28 10:03:02;;;;;;;2.20;1.40;;;33.70;42.00;;;;;;5059754;28;20447;-82
2022/06/28 10:05:30;;;;;;;1.30;1.20;;;34.00;41.70;;;;;;5061488;28;20443;-82
2022/06/28 10:07:59;;;;;;;1.30;1.20;;;34.20;41.20;;;;;;5057053;28;20529;-83
2022/06/28 10:10:27;;;;;;;1.17;1.10;;;34.30;41.00;;;;;;5057656;28;20441;-84
2022/06/28 10:15:48;;;;;;;1.50;1.40;;;34.50;40.60;;;;;;5057612;28;20484;-83
2022/06/28 10:18:17;;;;;;;1.20;1.10;;;34.60;40.30;;;;;;5043098;28;20441;-84
2022/06/28 10:20:46;;;;;;;1.40;1.30;;;34.50;40.10;;;;;;5037714;28;20474;-83
2022/06/28 10:23:23;;;;;;;1.23;1.23;;;34.30;40.20;;;;;;5038030;28;20490;-83
2022/06/28 10:26:04;;;;;;;4.23;1.37;;;34.40;40.40;;;;;;5037442;28;20526;-83
2022/06/28 10:28:37;;;;;;;2.37;1.20;;;34.60;40.40;;;;;;5037555;28;20439;-83
2022/06/28 10:31:32;;;;;;;1.30;1.30;;;34.80;40.30;;;;;;5037478;28;20446;-83
2022/06/28 10:34:13;;;;;;;1.20;1.10;;;35.10;39.90;;;;;;5043907;28;20443;-84
2022/06/28 10:36:51;;;;;;;1.33;1.23;;;35.40;39.70;;;;;;5055684;28;20936;-83
2022/06/28 10:39:22;;;;;;;1.30;1.20;;;35.70;39.40;;;;;;5058237;28;20499;-84
2022/06/28 10:41:50;;;;;;;0.90;0.90;;;35.90;39.10;;;;;;5057038;28;20478;-83
2022/06/28 10:44:19;;;;;;;1.20;1.10;;;36.20;38.80;;;;;;5057466;28;20434;-83
2022/06/28 10:46:50;;;;;;;1.20;1.10;;;36.50;38.50;;;;;;5056972;28;20975;-83
2022/06/28 10:49:18;;;;;;;2.13;1.10;;;36.50;37.90;;;;;;5056477;28;20465;-83
2022/06/28 10:52:11;;;;;;;1.00;1.00;;;36.80;38.00;;;;;;5048568;28;20445;-83
2022/06/28 10:54:40;;;;;;;1.27;1.17;;;36.90;37.70;;;;;;5058030;28;20533;-83
2022/06/28 10:57:21;;;;;;;1.10;1.00;;;37.00;37.50;;;;;;5057312;28;20534;-83
2022/06/28 10:59:50;;;;;;;1.23;1.13;;;37.10;37.40;;;;;;5059393;28;20498;-83
2022/06/28 11:02:18;;;;;;;1.10;1.00;;;37.30;37.30;;;;;;5061749;28;20480;-83
2022/06/28 11:04:46;;;;;;;2.60;1.00;;;37.50;37.00;;;;;;5059535;28;20465;-83
2022/06/28 11:07:24;;;;;;;1.20;1.10;;;37.70;36.60;;;;;;5055158;28;20462;-83
2022/06/28 11:10:07;;;;;;;1.23;1.20;;;38.10;36.50;;;;;;5061013;28;20494;-84
2022/06/28 11:12:39;;;;;;;0.90;0.90;;;38.30;36.00;;;;;;5061218;28;20458;-83
2022/06/28 11:15:08;;;;;;;0.93;0.93;;;38.50;35.70;;;;;;5061252;28;20999;-83
2022/06/28 11:17:37;;;;;;;1.03;0.90;;;38.80;35.40;;;;;;5060942;28;20510;-83
2022/06/28 11:20:06;;;;;;;1.10;1.00;;;39.00;35.20;;;;;;5060900;28;20442;-84
2022/06/28 11:22:37;;;;;;;1.17;0.80;;;39.30;34.90;;;;;;5060074;28;20481;-84
2022/06/28 11:25:08;;;;;;;0.90;0.83;;;39.70;34.40;;;;;;5054919;28;20448;-83
2022/06/28 11:27:35;;;;;;;0.90;0.90;;;40.20;33.80;;;;;;5061671;28;20490;-84
2022/06/28 11:30:04;;;;;;;0.83;0.83;;;40.70;33.20;;;;;;5061326;28;20448;-83
2022/06/28 11:32:33;;;;;;;0.80;0.80;;;41.20;32.60;;;;;;5060649;28;20548;-83
2022/06/28 11:35:03;;;;;;;1.33;0.90;;;41.70;32.00;;;;;;5060612;28;20958;-82
2022/06/28 11:37:32;;;;;;;1.50;0.97;;;42.20;31.40;;;;;;5060077;28;20463;-82
2022/06/28 11:40:00;;;;;;;0.90;0.90;;;42.60;30.60;;;;;;5049321;28;20439;-82
2022/06/28 11:42:30;;;;;;;0.80;0.80;;;42.90;30.20;;;;;;5040853;28;20471;-81
2022/06/28 11:44:58;;;;;;;0.80;0.80;;;43.30;30.00;;;;;;5041861;28;20538;-81
2022/06/28 11:47:26;;;;;;;0.80;0.80;;;43.50;29.60;;;;;;5041372;28;20453;-83
2022/06/28 11:50:10;;;;;;;0.90;0.90;;;43.10;29.20;;;;;;5040876;28;20542;-84
2022/06/28 11:52:46;;;;;;;0.70;0.70;;;42.90;30.00;;;;;;5041332;28;20515;-82
2022/06/28 11:55:14;;;;;;;0.70;0.70;;;42.90;29.80;;;;;;5054604;28;20449;-82
2022/06/28 11:57:44;;;;;;;0.87;0.80;;;43.00;29.70;;;;;;5042861;28;20525;-82
2022/06/28 12:00:14;;;;;;;0.70;0.70;;;43.20;29.60;;;;;;5040571;28;20457;-82
2022/06/28 12:02:49;;;;;;;0.70;0.70;;;43.00;29.60;;;;;;5040395;28;20529;-82
2022/06/28 12:05:28;;;;;;;0.70;0.70;;;43.30;29.60;;;;;;5040377;28;20521;-82
2022/06/28 12:07:56;;;;;;;0.70;0.70;;;43.40;29.40;;;;;;5040249;28;20445;-82
2022/06/28 12:10:24;;;;;;;0.80;0.80;;;43.20;29.20;;;;;;5039487;28;20508;-82
2022/06/28 12:12:54;;;;;;;0.73;0.73;;;42.80;29.20;;;;;;5053194;28;20486;-82
2022/06/28 12:15:30;;;;;;;0.80;0.80;;;42.70;29.40;;;;;;5055479;28;20936;-82
2022/06/28 12:18:00;;;;;;;1.57;0.80;;;42.50;29.40;;;;;;5059935;28;20521;-82
2022/06/28 12:20:29;;;;;;;0.80;0.80;;;42.10;29.40;;;;;;5060075;28;20533;-81
2022/06/28 12:22:57;;;;;;;1.40;1.00;;;41.70;29.50;;;;;;5060091;28;20473;-81
2022/06/28 12:25:25;;;;;;;0.87;0.80;;;41.40;29.70;;;;;;5061010;28;20449;-82
2022/06/28 12:27:54;;;;;;;2.97;1.13;;;41.50;30.20;;;;;;5059852;28;20537;-84
2022/06/28 12:30:24;;;;;;;0.70;0.70;;;41.20;29.90;;;;;;5051498;28;20482;-84
2022/06/28 12:32:58;;;;;;;0.73;0.73;;;41.10;30.30;;;;;;5039366;28;20473;-83
2022/06/28 12:35:26;;;;;;;0.63;0.63;;;41.00;30.10;;;;;;5039031;28;20478;-83
2022/06/28 12:37:55;;;;;;;0.70;0.70;;;41.00;30.10;;;;;;5039364;28;20498;-82
2022/06/28 12:40:24;;;;;;;1.10;0.73;;;41.20;30.10;;;;;;5038591;28;20533;-84
2022/06/28 12:42:52;;;;;;;0.90;0.90;;;40.90;29.90;;;;;;5038863;28;20545;-84
2022/06/28 12:45:21;;;;;;;0.80;0.80;;;40.80;30.10;;;;;;5039066;28;20449;-83
2022/06/28 12:47:49;;;;;;;0.70;0.70;;;40.50;30.60;;;;;;5055950;28;20456;-85
2022/06/28 12:50:16;;;;;;;1.63;0.90;;;40.20;30.10;;;;;;5038958;28;20538;-83
2022/06/28 12:52:45;;;;;;;0.60;0.60;;;40.20;30.60;;;;;;5039052;28;20451;-83
2022/06/28 12:55:13;;;;;;;1.37;0.70;;;40.00;31.00;;;;;;5038659;28;20447;-81
2022/06/28 12:57:41;;;;;;;1.47;0.80;;;39.90;30.80;;;;;;5039340;28;20530;-82
2022/06/28 13:00:10;;;;;;;0.80;0.80;;;39.90;30.60;;;;;;5050027;28;20435;-82
2022/06/28 13:02:39;;;;;;;1.73;1.17;;;39.70;30.70;;;;;;5056774;28;20570;-85
2022/06/28 13:05:09;;;;;;;1.30;1.20;;;38.00;25.70;;;;;;5050970;28;20538;-85
2022/06/28 13:07:41;;;;;;;2.53;1.23;;;36.00;25.90;;;;;;5058087;28;20537;-85
2022/06/28 13:10:10;;;;;;;3.60;1.10;;;35.30;28.60;;;;;;5057887;28;20446;-82
2022/06/28 13:12:38;;;;;;;3.60;1.00;;;34.70;27.90;;;;;;5058820;28;20498;-82